Time;durP1;ratioP1;P1;durP2;ratioP2;P2;SDS_P1;SDS_P2;PMS_P1;PMS_P2;Temp;Humidity;BMP_temperature;BMP_pressure;BME280_temperature;BME280_humidity;BME280_pressure;Samples;Min_cycle;Max_cycle;Signal;HPM_P1;HPM_P2
2022/04/26 03:36:18;;;;;;;24.77;12.13;;;8.00;99.90;;;;;;5052473;28;20435;-68
2022/04/26 03:38:47;;;;;;;21.57;11.77;;;8.00;99.90;;;;;;5044166;28;20420;-68
2022/04/26 03:41:14;;;;;;;20.70;10.73;;;8.00;99.90;;;;;;5051626;28;20545;-68
2022/04/26 03:43:39;;;;;;;23.27;12.10;;;8.00;99.90;;;;;;5048021;28;20463;-68
2022/04/26 03:46:05;;;;;;;27.77;12.30;;;8.00;99.90;;;;;;5050047;28;20452;-68
2022/04/26 03:48:31;;;;;;;22.23;10.00;;;8.00;99.90;;;;;;5047578;28;20177;-68
2022/04/26 03:50:56;;;;;;;19.57;10.27;;;8.00;99.90;;;;;;5047417;28;20337;-68
2022/04/26 03:53:22;;;;;;;22.27;10.63;;;8.00;99.90;;;;;;5051653;28;20186;-68
2022/04/26 03:55:48;;;;;;;21.40;10.70;;;8.00;99.90;;;;;;5051760;28;20188;-68
2022/04/26 03:58:13;;;;;;;23.07;11.27;;;8.00;99.90;;;;;;5051669;28;20240;-68
2022/04/26 04:00:39;;;;;;;24.40;12.50;;;8.00;99.90;;;;;;5051609;28;20237;-68
2022/04/26 04:03:05;;;;;;;24.93;13.53;;;7.90;99.90;;;;;;5058674;28;20541;-68
2022/04/26 04:05:30;;;;;;;22.90;11.63;;;8.00;99.90;;;;;;5047937;28;20181;-68
2022/04/26 04:07:56;;;;;;;24.43;12.63;;;8.00;99.90;;;;;;5056966;28;20638;-68
2022/04/26 04:10:21;;;;;;;31.00;12.73;;;8.00;99.90;;;;;;5047025;28;20189;-68
2022/04/26 04:12:47;;;;;;;25.00;12.80;;;7.90;99.90;;;;;;5047300;28;20548;-68
2022/04/26 04:15:13;;;;;;;23.43;12.00;;;8.00;99.90;;;;;;5048069;28;20201;-68
2022/04/26 04:17:38;;;;;;;29.23;11.83;;;8.00;99.90;;;;;;5047485;28;20194;-68
2022/04/26 04:20:04;;;;;;;24.57;12.30;;;7.90;99.90;;;;;;5046222;28;20218;-68
2022/04/26 04:22:30;;;;;;;23.83;11.57;;;7.90;99.90;;;;;;5047298;28;20185;-68
2022/04/26 04:24:56;;;;;;;24.63;12.70;;;8.00;99.90;;;;;;5051205;28;20416;-68
2022/04/26 04:27:21;;;;;;;20.13;10.80;;;8.00;99.90;;;;;;5048122;28;20182;-68
2022/04/26 04:29:47;;;;;;;16.43;10.80;;;8.00;99.90;;;;;;5049014;28;20554;-68
2022/04/26 04:32:13;;;;;;;21.50;11.43;;;7.90;99.90;;;;;;5049864;28;20244;-68
2022/04/26 04:34:39;;;;;;;18.53;9.60;;;7.90;99.90;;;;;;5053043;28;20185;-68
2022/04/26 04:37:05;;;;;;;17.40;8.30;;;7.90;99.90;;;;;;5050817;28;20181;-66
2022/04/26 04:39:31;;;;;;;18.30;9.70;;;8.00;99.90;;;;;;5054452;28;20454;-66
2022/04/26 04:41:56;;;;;;;19.60;10.63;;;7.80;99.90;;;;;;5046667;28;20653;-66
2022/04/26 04:44:22;;;;;;;17.17;9.07;;;7.80;99.90;;;;;;5051985;28;20185;-67
2022/04/26 04:46:49;;;;;;;18.80;9.03;;;7.80;99.90;;;;;;5046936;28;20599;-66
2022/04/26 04:49:15;;;;;;;19.20;10.37;;;7.80;99.90;;;;;;5051669;28;20531;-66
2022/04/26 04:51:40;;;;;;;17.43;9.80;;;7.80;99.90;;;;;;5052007;28;20423;-67
2022/04/26 04:54:06;;;;;;;23.57;10.90;;;7.80;99.90;;;;;;5053502;28;20803;-66
2022/04/26 04:56:32;;;;;;;21.17;9.70;;;7.80;99.90;;;;;;5054321;28;20185;-66
2022/04/26 04:58:57;;;;;;;17.67;10.00;;;7.80;99.90;;;;;;5052513;28;20259;-66
2022/04/26 05:01:23;;;;;;;18.07;9.77;;;7.80;99.90;;;;;;5052263;28;20181;-66
2022/04/26 05:03:50;;;;;;;15.43;9.53;;;7.90;99.90;;;;;;5057390;28;20177;-66
2022/04/26 05:06:16;;;;;;;15.50;8.27;;;7.90;99.90;;;;;;5047391;28;20200;-66
2022/04/26 05:08:44;;;;;;;17.60;10.47;;;7.80;99.90;;;;;;5046770;28;20444;-66
2022/04/26 05:11:10;;;;;;;17.90;9.57;;;7.90;99.90;;;;;;5046866;28;20427;-66
2022/04/26 05:13:36;;;;;;;24.40;9.03;;;7.80;99.90;;;;;;5047493;28;20451;-66
2022/04/26 05:16:02;;;;;;;16.67;9.07;;;7.90;99.90;;;;;;5044706;28;20444;-66
2022/04/26 05:18:28;;;;;;;19.53;8.90;;;7.80;99.90;;;;;;5047896;28;20447;-66
2022/04/26 05:20:54;;;;;;;22.50;9.27;;;7.80;99.90;;;;;;5048126;28;20289;-66
2022/04/26 05:26:04;;;;;;;19.77;9.83;;;7.80;99.90;;;;;;5042734;28;20236;-67
2022/04/26 05:28:29;;;;;;;20.30;9.23;;;7.80;99.90;;;;;;5049187;28;20897;-66
2022/04/26 05:30:55;;;;;;;21.40;10.10;;;7.90;99.90;;;;;;5046858;28;20228;-66
2022/04/26 05:33:21;;;;;;;14.13;8.60;;;7.90;99.90;;;;;;5050111;28;20607;-66
2022/04/26 05:35:48;;;;;;;18.10;9.50;;;7.90;99.90;;;;;;5055683;28;20232;-66
2022/04/26 05:38:15;;;;;;;23.83;10.10;;;7.90;99.90;;;;;;5052535;28;20676;-66
2022/04/26 05:40:41;;;;;;;18.90;9.63;;;7.90;99.90;;;;;;5054146;28;20504;-66
2022/04/26 05:43:07;;;;;;;16.93;8.70;;;7.90;99.90;;;;;;5054259;28;20411;-66
2022/04/26 05:45:33;;;;;;;14.77;7.73;;;7.90;99.90;;;;;;5059361;28;20496;-66
2022/04/26 05:47:59;;;;;;;17.40;10.10;;;7.90;99.90;;;;;;5052695;28;20186;-66
2022/04/26 05:50:24;;;;;;;19.53;9.80;;;8.00;99.90;;;;;;5050743;28;20281;-66
2022/04/26 05:52:50;;;;;;;18.47;8.23;;;8.00;99.90;;;;;;5048764;28;20232;-66
2022/04/26 05:55:16;;;;;;;17.90;9.27;;;8.00;99.90;;;;;;5055817;28;20188;-67
2022/04/26 05:57:42;;;;;;;20.70;8.70;;;8.00;99.90;;;;;;5058736;28;20242;-66
2022/04/26 06:00:10;;;;;;;21.67;10.00;;;8.00;99.90;;;;;;5047611;28;20351;-67
2022/04/26 06:02:35;;;;;;;22.67;10.43;;;8.00;99.90;;;;;;5053100;28;20415;-66
2022/04/26 06:05:01;;;;;;;15.97;8.83;;;8.00;99.90;;;;;;5051657;28;20431;-67
2022/04/26 06:07:27;;;;;;;17.53;9.10;;;8.00;99.90;;;;;;5048825;28;20178;-66
2022/04/26 06:09:56;;;;;;;14.50;7.70;;;7.90;99.90;;;;;;5048064;28;20424;-66
2022/04/26 06:12:26;;;;;;;17.23;7.97;;;8.00;99.90;;;;;;5049270;28;20432;-66
2022/04/26 06:14:53;;;;;;;18.97;10.10;;;8.10;99.90;;;;;;5049213;28;20447;-66
2022/04/26 06:17:18;;;;;;;26.57;11.00;;;8.20;99.90;;;;;;5049119;28;20436;-67
2022/04/26 06:19:44;;;;;;;14.10;8.40;;;8.20;99.90;;;;;;5052375;28;20819;-67
2022/04/26 06:22:10;;;;;;;13.27;7.80;;;8.20;99.90;;;;;;5050668;28;20638;-67
2022/04/26 06:24:35;;;;;;;12.63;7.43;;;8.20;99.90;;;;;;5048415;28;20532;-66
2022/04/26 06:27:02;;;;;;;10.80;5.80;;;8.20;99.90;;;;;;5047471;28;20258;-66
2022/04/26 06:29:28;;;;;;;15.00;7.47;;;8.20;99.90;;;;;;5053877;28;20188;-67
2022/04/26 06:31:54;;;;;;;14.17;7.60;;;8.30;99.90;;;;;;5048642;28;20416;-67
2022/04/26 06:34:19;;;;;;;15.93;6.93;;;8.30;99.90;;;;;;5050596;28;20790;-67
2022/04/26 06:36:45;;;;;;;12.27;7.00;;;8.40;99.90;;;;;;5049006;28;20197;-67
2022/04/26 06:39:11;;;;;;;11.97;6.30;;;8.40;99.90;;;;;;5050980;28;20321;-66
2022/04/26 06:41:37;;;;;;;9.97;5.40;;;8.40;99.90;;;;;;5052559;28;20519;-67
2022/04/26 06:44:03;;;;;;;13.27;7.17;;;8.40;99.90;;;;;;5055029;28;20185;-67
2022/04/26 06:46:28;;;;;;;10.50;6.03;;;8.40;99.90;;;;;;5056197;28;20643;-66
2022/04/26 06:48:58;;;;;;;8.47;5.30;;;8.50;99.90;;;;;;5056607;28;20430;-67
2022/04/26 06:51:24;;;;;;;10.03;5.70;;;8.50;99.90;;;;;;5049946;28;20198;-66
2022/04/26 06:53:49;;;;;;;9.33;5.53;;;8.60;99.90;;;;;;5047826;28;20440;-67
2022/04/26 06:56:15;;;;;;;10.07;5.43;;;8.70;99.90;;;;;;5047835;28;20184;-67
2022/04/26 06:58:41;;;;;;;8.40;4.80;;;8.70;99.90;;;;;;5045934;28;20740;-67
2022/04/26 07:01:07;;;;;;;10.50;6.00;;;8.80;99.90;;;;;;5049355;28;20195;-67
2022/04/26 07:03:32;;;;;;;9.70;5.10;;;8.80;99.90;;;;;;5057964;28;20213;-67
2022/04/26 07:05:58;;;;;;;8.00;4.40;;;8.90;99.90;;;;;;5048117;28;20562;-66
2022/04/26 07:08:24;;;;;;;9.20;4.97;;;9.00;99.90;;;;;;5047100;28;20193;-67
2022/04/26 07:10:49;;;;;;;7.07;4.17;;;9.00;99.90;;;;;;5048043;28;20185;-66
2022/04/26 07:13:18;;;;;;;7.10;4.33;;;9.00;99.90;;;;;;5048870;28;20197;-67
2022/04/26 07:15:44;;;;;;;9.47;5.30;;;9.40;99.90;;;;;;5047099;28;20201;-66
2022/04/26 07:18:12;;;;;;;9.93;4.93;;;9.40;99.90;;;;;;5049798;28;20430;-66
2022/04/26 07:20:38;;;;;;;8.37;4.07;;;9.50;99.90;;;;;;5049365;28;20459;-69
2022/04/26 07:23:04;;;;;;;10.07;4.93;;;9.60;99.90;;;;;;5049669;28;20415;-67
2022/04/26 07:25:30;;;;;;;5.60;4.13;;;9.70;99.90;;;;;;5054061;28;20417;-67
2022/04/26 07:27:55;;;;;;;8.77;4.40;;;9.60;99.90;;;;;;5049747;28;20177;-67
2022/04/26 07:30:21;;;;;;;5.20;2.87;;;9.80;99.90;;;;;;5050339;28;20201;-66
2022/04/26 07:35:44;;;;;;;8.43;4.17;;;9.50;99.90;;;;;;5018017;28;20337;-66
2022/04/26 07:38:10;;;;;;;7.07;4.60;;;9.60;99.90;;;;;;5051152;28;21158;-67
2022/04/26 07:40:36;;;;;;;6.50;4.00;;;10.10;99.90;;;;;;5051054;28;20312;-65
2022/04/26 07:43:03;;;;;;;6.03;3.50;;;10.20;99.90;;;;;;5054662;28;20427;-67
2022/04/26 07:45:30;;;;;;;6.30;3.07;;;10.10;99.90;;;;;;5051833;28;20273;-67
2022/04/26 07:47:56;;;;;;;8.00;3.77;;;9.90;99.90;;;;;;5055962;28;20434;-67
2022/04/26 07:50:21;;;;;;;6.50;3.23;;;9.80;99.90;;;;;;5050576;28;20424;-68
2022/04/26 07:52:48;;;;;;;7.63;4.13;;;9.80;99.90;;;;;;5058051;28;20550;-68
2022/04/26 07:55:13;;;;;;;6.53;3.37;;;10.00;99.90;;;;;;5044660;28;20209;-68
2022/04/26 07:57:39;;;;;;;9.00;3.73;;;9.90;99.90;;;;;;5053587;28;20915;-66
2022/04/26 08:00:06;;;;;;;8.03;4.00;;;9.90;99.90;;;;;;5052223;28;20279;-68
2022/04/26 08:02:32;;;;;;;5.97;3.10;;;9.80;99.90;;;;;;5044862;28;20553;-67
2022/04/26 08:05:01;;;;;;;6.00;3.57;;;9.70;99.90;;;;;;5050787;28;20428;-68
2022/04/26 08:07:31;;;;;;;6.33;3.83;;;9.60;99.90;;;;;;5048335;28;20181;-68
2022/04/26 08:09:57;;;;;;;7.23;3.37;;;9.50;99.90;;;;;;5047913;28;20536;-68
2022/04/26 08:12:23;;;;;;;5.30;3.60;;;9.50;99.90;;;;;;5045823;28;20416;-68
2022/04/26 08:14:48;;;;;;;6.00;3.30;;;9.50;99.90;;;;;;5050873;28;20967;-68
2022/04/26 08:17:15;;;;;;;7.33;3.90;;;9.60;99.90;;;;;;5050491;28;20193;-68
2022/04/26 08:19:42;;;;;;;6.43;3.83;;;9.70;99.90;;;;;;5051463;28;20328;-68
2022/04/26 08:22:07;;;;;;;12.17;3.50;;;9.80;99.90;;;;;;5051091;28;20425;-67
2022/04/26 08:27:25;;;;;;;4.93;3.10;;;10.00;99.90;;;;;;5043193;28;20224;-67
2022/04/26 08:29:54;;;;;;;5.23;2.83;;;10.20;99.90;;;;;;5050196;28;21305;-68
2022/04/26 08:32:21;;;;;;;6.10;3.53;;;10.20;99.90;;;;;;5046213;28;20436;-69
2022/04/26 08:34:48;;;;;;;10.43;4.67;;;10.40;99.90;;;;;;5091643;23;20583;-68
2022/04/26 08:37:14;;;;;;;6.37;3.50;;;10.50;99.90;;;;;;5115000;27;20420;-67
2022/04/26 08:39:39;;;;;;;4.40;2.47;;;10.60;99.90;;;;;;5113791;27;20460;-69
2022/04/26 08:42:06;;;;;;;4.03;2.53;;;10.60;99.90;;;;;;5120061;27;20181;-68
2022/04/26 08:44:34;;;;;;;4.00;2.10;;;10.60;99.90;;;;;;5113508;27;20209;-68
2022/04/26 08:52:45;;;;;;;4.40;2.37;;;10.20;99.90;;;;;;5125582;27;20778;-68
2022/04/26 08:55:11;;;;;;;3.40;1.90;;;10.20;99.90;;;;;;5125111;28;20993;-68
2022/04/26 08:57:36;;;;;;;5.50;2.90;;;10.20;99.90;;;;;;5124700;28;20478;-68
2022/04/26 09:00:06;;;;;;;4.13;2.00;;;10.10;99.90;;;;;;5123260;28;20207;-68
2022/04/26 09:02:31;;;;;;;6.43;2.67;;;10.30;99.90;;;;;;5121068;28;20194;-68
2022/04/26 09:05:06;;;;;;;5.53;2.80;;;10.50;99.90;;;;;;5112863;28;20429;-68
2022/04/26 09:07:34;;;;;;;6.37;2.80;;;10.50;99.90;;;;;;5123033;27;20505;-68
2022/04/26 09:10:12;;;;;;;3.83;2.03;;;10.70;99.90;;;;;;5117909;27;20556;-69
2022/04/26 09:12:57;;;;;;;5.30;3.20;;;10.90;99.90;;;;;;5124822;27;20931;-69
2022/04/26 09:15:23;;;;;;;5.47;3.30;;;11.30;99.90;;;;;;5120295;27;20424;-69
2022/04/26 09:17:49;;;;;;;3.40;2.03;;;11.80;99.90;;;;;;5127174;27;20427;-68
2022/04/26 09:20:31;;;;;;;5.63;3.13;;;12.40;99.60;;;;;;5121579;27;20235;-69
2022/04/26 09:23:00;;;;;;;5.30;2.63;;;12.80;98.90;;;;;;5123357;27;20266;-69
2022/04/26 09:25:26;;;;;;;3.90;2.30;;;13.10;98.30;;;;;;5122005;27;20511;-69
2022/04/26 09:27:58;;;;;;;4.60;2.63;;;13.20;97.70;;;;;;5122177;27;20609;-68
2022/04/26 09:30:28;;;;;;;4.90;2.40;;;13.00;97.30;;;;;;5122602;27;20198;-68
2022/04/26 09:32:53;;;;;;;4.63;2.40;;;13.00;96.70;;;;;;5119841;27;20436;-69
2022/04/26 09:35:24;;;;;;;4.23;2.40;;;12.80;95.90;;;;;;5121578;27;20432;-68
2022/04/26 09:37:50;;;;;;;4.80;2.27;;;12.60;97.70;;;;;;5115256;27;20232;-68
2022/04/26 09:40:20;;;;;;;5.63;3.40;;;12.40;97.10;;;;;;5120861;27;20572;-68
2022/04/26 09:42:48;;;;;;;11.40;3.00;;;12.40;96.40;;;;;;5122269;27;20930;-69
2022/04/26 09:45:16;;;;;;;3.60;2.30;;;12.20;98.10;;;;;;5129790;27;20971;-68
2022/04/26 09:47:43;;;;;;;3.43;2.57;;;12.20;97.30;;;;;;5129527;27;20435;-68
2022/04/26 09:50:18;;;;;;;5.30;2.93;;;12.40;97.60;;;;;;5129259;27;20432;-69
2022/04/26 09:52:44;;;;;;;6.07;2.77;;;12.80;97.30;;;;;;5125179;27;20443;-69
2022/04/26 09:55:11;;;;;;;4.83;2.70;;;13.10;96.50;;;;;;5126664;27;20475;-69
2022/04/26 09:57:38;;;;;;;4.50;2.57;;;13.00;96.40;;;;;;5130912;27;20279;-69
2022/04/26 10:00:06;;;;;;;5.63;3.17;;;12.80;96.70;;;;;;5125404;27;20457;-69
2022/04/26 10:02:32;;;;;;;11.23;3.03;;;12.70;96.60;;;;;;5128172;27;20413;-69
2022/04/26 10:05:06;;;;;;;4.97;2.27;;;12.70;94.80;;;;;;5126872;27;20418;-69
2022/04/26 10:07:43;;;;;;;12.43;3.60;;;12.40;94.40;;;;;;5130921;27;20845;-68
2022/04/26 10:10:09;;;;;;;9.03;2.90;;;12.20;94.10;;;;;;5126669;27;20745;-68
2022/04/26 10:12:36;;;;;;;8.70;3.17;;;12.30;95.90;;;;;;5130845;27;20460;-69
2022/04/26 10:15:03;;;;;;;13.60;2.83;;;12.40;95.00;;;;;;5126669;27;20464;-69
2022/04/26 10:17:32;;;;;;;4.73;2.30;;;12.70;94.60;;;;;;5128310;27;20459;-69
2022/04/26 10:20:00;;;;;;;5.93;3.23;;;12.80;94.40;;;;;;5119125;27;20495;-69
2022/04/26 10:22:55;;;;;;;5.77;3.57;;;13.10;95.00;;;;;;5130409;27;20512;-69
2022/04/26 10:25:22;;;;;;;7.70;3.43;;;13.30;92.50;;;;;;5114737;27;20758;-69
2022/04/26 10:28:34;;;;;;;4.67;2.50;;;13.30;94.20;;;;;;5124450;27;20412;-69
2022/04/26 10:31:10;;;;;;;6.00;3.50;;;13.60;94.70;;;;;;5113087;27;20439;-69
2022/04/26 10:33:40;;;;;;;6.90;3.17;;;13.90;93.20;;;;;;5130769;27;21056;-70
2022/04/26 10:36:26;;;;;;;5.60;2.63;;;14.10;93.10;;;;;;5129318;27;20451;-69
2022/04/26 10:39:12;;;;;;;5.33;2.40;;;14.30;90.60;;;;;;5115127;27;20432;-69
2022/04/26 10:41:41;;;;;;;4.70;2.30;;;14.20;90.50;;;;;;5124653;27;20913;-69
2022/04/26 10:44:13;;;;;;;8.33;2.17;;;14.20;91.90;;;;;;5128281;27;21045;-69
2022/04/26 10:46:44;;;;;;;3.80;2.33;;;14.20;87.80;;;;;;5128117;27;20427;-69
2022/04/26 10:49:24;;;;;;;4.47;2.50;;;14.20;90.00;;;;;;5114233;27;20897;-69
2022/04/26 10:51:57;;;;;;;4.23;2.20;;;14.30;89.40;;;;;;5127374;27;20428;-69
2022/04/26 10:54:48;;;;;;;6.13;1.40;;;14.40;85.30;;;;;;5130575;27;20431;-68
2022/04/26 10:57:16;;;;;;;10.00;1.60;;;13.70;81.20;;;;;;5129892;27;20468;-69
2022/04/26 10:59:49;;;;;;;3.47;1.50;;;13.60;84.70;;;;;;5106969;27;20464;-69
2022/04/26 11:02:16;;;;;;;2.10;1.67;;;13.40;85.10;;;;;;5125742;27;20433;-69
2022/04/26 11:04:43;;;;;;;3.07;1.80;;;13.40;83.10;;;;;;5125550;27;20425;-69
2022/04/26 11:07:18;;;;;;;2.73;1.37;;;13.30;84.90;;;;;;5129413;27;20435;-71
2022/04/26 11:09:55;;;;;;;10.20;1.80;;;13.10;86.20;;;;;;5124087;27;20424;-69
2022/04/26 11:12:28;;;;;;;2.17;1.27;;;13.20;77.80;;;;;;5123199;27;20428;-69
2022/04/26 11:14:59;;;;;;;2.93;1.50;;;13.10;75.70;;;;;;5123749;27;20428;-70
2022/04/26 11:17:26;;;;;;;2.90;1.30;;;13.00;76.20;;;;;;5129668;27;20755;-70
2022/04/26 11:19:53;;;;;;;2.60;1.53;;;12.90;77.70;;;;;;5128825;27;20468;-70
2022/04/26 11:22:20;;;;;;;3.53;1.53;;;12.90;77.90;;;;;;5129987;27;20477;-69
2022/04/26 11:30:32;;;;;;;4.40;1.70;;;12.90;80.90;;;;;;5119490;27;20512;-70
2022/04/26 11:33:08;;;;;;;3.33;1.63;;;13.00;81.90;;;;;;5125691;27;20499;-68
2022/04/26 11:35:35;;;;;;;5.13;2.20;;;13.30;82.50;;;;;;5128656;27;20998;-70
2022/04/26 11:38:13;;;;;;;5.60;1.83;;;13.60;80.20;;;;;;5126005;27;20543;-69
2022/04/26 11:40:56;;;;;;;4.53;2.00;;;13.90;83.30;;;;;;5128760;27;20505;-69
2022/04/26 11:43:24;;;;;;;4.80;1.57;;;14.50;81.20;;;;;;5123104;27;21021;-69
2022/04/26 11:45:52;;;;;;;2.23;1.40;;;14.70;76.90;;;;;;5125357;27;20418;-70
2022/04/26 11:48:23;;;;;;;3.80;1.80;;;14.60;73.40;;;;;;5123423;27;20414;-70
2022/04/26 11:50:50;;;;;;;1.80;1.20;;;14.70;76.00;;;;;;5121092;27;20424;-69
2022/04/26 11:53:18;;;;;;;3.97;1.60;;;14.60;78.30;;;;;;5119475;27;20559;-70
2022/04/26 11:55:46;;;;;;;3.77;1.33;;;14.30;77.80;;;;;;5121033;27;20513;-70
2022/04/26 11:58:27;;;;;;;4.20;2.30;;;14.00;80.60;;;;;;5124871;27;20561;-69
2022/04/26 12:01:00;;;;;;;2.13;1.17;;;13.70;79.50;;;;;;5116517;27;20491;-70
2022/04/26 12:03:41;;;;;;;10.30;2.30;;;13.40;79.80;;;;;;5125683;27;20413;-68
2022/04/26 12:06:09;;;;;;;2.97;1.53;;;13.20;84.40;;;;;;5122211;27;20455;-67
2022/04/26 12:08:48;;;;;;;5.10;1.93;;;13.00;84.60;;;;;;5128983;27;20461;-68
2022/04/26 12:11:16;;;;;;;9.23;3.53;;;12.70;90.20;;;;;;5114390;27;20816;-68
2022/04/26 12:13:42;;;;;;;6.07;3.50;;;12.60;92.20;;;;;;5109683;27;20425;-69
2022/04/26 12:16:54;;;;;;;6.93;1.90;;;12.50;92.90;;;;;;5122773;27;20904;-68
2022/04/26 12:19:32;;;;;;;3.70;2.10;;;12.40;92.70;;;;;;5121908;27;20207;-68
2022/04/26 12:21:59;;;;;;;3.97;1.90;;;12.20;93.30;;;;;;5114768;27;20408;-69
2022/04/26 12:24:29;;;;;;;6.53;2.63;;;12.20;92.80;;;;;;5121761;27;20972;-68
2022/04/26 12:27:00;;;;;;;4.27;2.00;;;12.20;92.30;;;;;;5120489;27;20762;-68
2022/04/26 12:29:30;;;;;;;3.43;1.70;;;12.30;92.30;;;;;;5114505;27;20463;-68
2022/04/26 12:31:57;;;;;;;2.13;1.30;;;12.20;91.00;;;;;;5128389;27;20428;-68
2022/04/26 12:34:24;;;;;;;3.40;1.60;;;12.30;91.00;;;;;;5126043;27;20416;-68
2022/04/26 12:37:08;;;;;;;3.03;1.67;;;12.50;91.20;;;;;;5118476;27;20517;-70
2022/04/26 12:39:51;;;;;;;3.67;1.77;;;13.10;90.80;;;;;;5124046;27;20517;-68
2022/04/26 12:42:42;;;;;;;3.37;1.77;;;12.90;90.30;;;;;;5118994;27;21119;-68
2022/04/26 12:45:13;;;;;;;3.47;1.70;;;12.50;90.40;;;;;;5114029;27;20767;-68
2022/04/26 12:50:29;;;;;;;7.27;2.60;;;12.00;91.70;;;;;;5127203;27;20589;-68
2022/04/26 12:53:00;;;;;;;7.20;2.47;;;11.90;92.90;;;;;;5126135;27;21087;-67
2022/04/26 12:55:31;;;;;;;6.70;2.60;;;11.40;94.30;;;;;;5123562;27;20444;-68
2022/04/26 12:58:01;;;;;;;6.07;2.60;;;11.00;95.00;;;;;;5124618;28;20424;-68
2022/04/26 13:00:28;;;;;;;9.60;3.33;;;10.80;96.60;;;;;;5116991;28;20464;-68
2022/04/26 13:03:00;;;;;;;7.63;3.00;;;10.90;96.20;;;;;;5119962;28;20424;-68
2022/04/26 13:05:27;;;;;;;7.00;2.90;;;10.60;96.60;;;;;;5122174;28;20441;-68
2022/04/26 13:07:53;;;;;;;8.10;2.83;;;10.50;97.00;;;;;;5127134;28;20417;-68
2022/04/26 13:10:20;;;;;;;6.70;3.77;;;10.30;97.80;;;;;;5124413;28;20486;-68
2022/04/26 13:12:46;;;;;;;5.20;2.50;;;10.40;98.30;;;;;;5124294;28;20210;-68
2022/04/26 13:15:15;;;;;;;6.03;2.77;;;10.60;98.60;;;;;;5127179;28;20837;-69
2022/04/26 13:17:41;;;;;;;5.10;2.83;;;10.90;98.60;;;;;;5127804;28;20232;-68
2022/04/26 13:20:10;;;;;;;5.40;2.90;;;11.20;97.10;;;;;;5126549;28;20492;-68
2022/04/26 13:22:37;;;;;;;4.23;2.73;;;11.60;96.20;;;;;;5120504;28;20426;-69
2022/04/26 13:25:07;;;;;;;6.00;3.17;;;11.70;95.70;;;;;;5118216;28;20508;-68
2022/04/26 13:27:34;;;;;;;6.30;3.07;;;11.60;96.10;;;;;;5114370;28;20847;-68
2022/04/26 13:29:59;;;;;;;17.73;3.07;;;11.80;95.70;;;;;;5118069;28;20730;-68
2022/04/26 13:32:25;;;;;;;7.47;2.70;;;12.20;95.50;;;;;;5117465;28;20459;-69
2022/04/26 13:34:54;;;;;;;5.27;2.67;;;12.40;94.70;;;;;;5118776;28;20215;-68
2022/04/26 13:37:21;;;;;;;5.03;1.97;;;12.30;93.80;;;;;;5118581;28;20428;-68
2022/04/26 13:39:50;;;;;;;5.10;1.53;;;12.00;92.50;;;;;;5118111;28;20444;-68
2022/04/26 13:42:16;;;;;;;3.13;1.30;;;11.60;91.10;;;;;;5116959;28;20411;-69
2022/04/26 13:44:43;;;;;;;4.30;1.50;;;11.40;92.30;;;;;;5116913;28;20456;-68
2022/04/26 13:47:09;;;;;;;3.70;1.63;;;11.50;92.80;;;;;;5119513;28;20507;-68
2022/04/26 13:49:35;;;;;;;4.37;1.57;;;11.50;93.00;;;;;;5125869;28;20511;-68
2022/04/26 13:52:04;;;;;;;3.00;1.53;;;11.40;91.40;;;;;;5125367;28;20501;-69
2022/04/26 13:54:30;;;;;;;2.70;1.20;;;11.20;92.30;;;;;;5119680;27;20412;-68
2022/04/26 13:56:56;;;;;;;3.37;1.50;;;11.20;91.40;;;;;;5130134;27;20451;-68
2022/04/26 13:59:23;;;;;;;3.77;1.50;;;11.20;92.50;;;;;;5129592;27;20205;-68
2022/04/26 14:01:50;;;;;;;2.03;1.10;;;11.30;92.80;;;;;;5124947;27;20587;-68
2022/04/26 14:04:16;;;;;;;3.37;1.70;;;11.70;92.20;;;;;;5130051;27;20835;-68
2022/04/26 14:06:42;;;;;;;4.00;1.23;;;11.70;90.10;;;;;;5129479;27;21083;-68
2022/04/26 14:09:07;;;;;;;2.23;1.07;;;11.70;90.80;;;;;;5128571;27;20484;-68
2022/04/26 14:11:33;;;;;;;3.03;1.37;;;11.70;90.80;;;;;;5127428;27;20180;-68
2022/04/26 14:22:16;;;;;;;1.93;1.03;;;12.10;90.80;;;;;;5117104;27;20839;-68
2022/04/26 14:24:43;;;;;;;1.80;1.10;;;12.20;90.00;;;;;;5127211;27;20448;-68
2022/04/26 14:27:09;;;;;;;2.37;1.40;;;12.40;87.90;;;;;;5125839;27;20635;-68
2022/04/26 14:29:35;;;;;;;3.80;1.63;;;12.50;87.70;;;;;;5118806;27;20873;-68
2022/04/26 14:32:02;;;;;;;2.73;1.20;;;12.50;86.50;;;;;;5127145;27;20450;-68
2022/04/26 14:34:28;;;;;;;4.00;1.17;;;12.40;85.80;;;;;;5125663;27;20923;-68
2022/04/26 14:36:53;;;;;;;4.97;1.37;;;12.40;87.90;;;;;;5128150;27;20425;-68
2022/04/26 14:39:19;;;;;;;2.83;1.53;;;12.40;86.00;;;;;;5124489;27;20231;-68
2022/04/26 14:41:45;;;;;;;2.33;1.40;;;12.30;87.60;;;;;;5123569;27;20661;-68
2022/04/26 14:44:10;;;;;;;2.63;1.10;;;12.40;90.10;;;;;;5119393;27;20895;-68
2022/04/26 14:46:36;;;;;;;2.80;1.47;;;12.30;86.10;;;;;;5127364;27;20220;-68
2022/04/26 14:49:04;;;;;;;6.37;1.60;;;12.10;85.50;;;;;;5126790;27;20228;-70
2022/04/26 14:51:29;;;;;;;5.13;1.60;;;12.00;89.50;;;;;;5123795;27;20197;-68
2022/04/26 14:53:55;;;;;;;6.43;2.60;;;12.20;88.20;;;;;;5118675;27;20898;-68
2022/04/26 14:56:22;;;;;;;2.73;1.47;;;12.30;87.90;;;;;;5125885;27;20187;-68
2022/04/26 14:58:49;;;;;;;2.50;1.70;;;12.30;88.90;;;;;;5127882;27;20420;-68
2022/04/26 15:01:18;;;;;;;3.40;1.60;;;12.40;88.00;;;;;;5120226;27;20472;-68
2022/04/26 15:03:44;;;;;;;4.10;2.20;;;12.20;90.40;;;;;;5125913;27;20446;-68
2022/04/26 15:06:11;;;;;;;4.50;2.03;;;12.30;90.20;;;;;;5126606;27;20416;-68
2022/04/26 15:11:21;;;;;;;2.63;1.67;;;12.30;88.80;;;;;;5117079;27;20539;-68
2022/04/26 15:16:41;;;;;;;5.57;2.00;;;12.20;91.10;;;;;;5121400;27;20929;-68
2022/04/26 15:19:12;;;;;;;6.60;2.30;;;12.10;90.50;;;;;;5125166;27;20520;-68
2022/04/26 15:21:39;;;;;;;4.50;2.17;;;12.00;88.80;;;;;;5124132;27;20414;-68
2022/04/26 15:24:05;;;;;;;4.20;2.50;;;11.80;90.60;;;;;;5124537;27;20478;-68
2022/04/26 15:26:31;;;;;;;3.30;2.03;;;11.70;92.20;;;;;;5116176;27;20417;-68
2022/04/26 15:28:58;;;;;;;5.57;2.80;;;11.70;92.00;;;;;;5122967;27;20470;-68
2022/04/26 15:31:24;;;;;;;3.17;1.93;;;11.70;92.50;;;;;;5123067;27;20420;-68
2022/04/26 15:33:52;;;;;;;4.30;2.13;;;11.70;92.00;;;;;;5122517;27;20507;-68
2022/04/26 15:36:19;;;;;;;8.50;3.50;;;11.70;92.30;;;;;;5127023;27;20206;-68
2022/04/26 15:38:45;;;;;;;4.50;2.30;;;11.50;92.90;;;;;;5112356;27;20429;-68
2022/04/26 15:41:12;;;;;;;3.60;2.33;;;11.40;93.70;;;;;;5116977;27;20456;-69
2022/04/26 15:43:38;;;;;;;6.67;2.27;;;11.60;93.40;;;;;;5121504;27;20409;-68
2022/04/26 15:46:09;;;;;;;4.27;1.87;;;11.60;93.40;;;;;;5114247;27;20435;-68
2022/04/26 15:48:39;;;;;;;3.40;1.97;;;11.60;92.70;;;;;;5126513;27;20428;-68
2022/04/26 15:51:06;;;;;;;4.23;1.90;;;11.70;92.10;;;;;;5126318;27;20459;-68
2022/04/26 15:53:33;;;;;;;2.33;1.27;;;11.60;92.00;;;;;;5126919;27;20787;-68
2022/04/26 15:55:59;;;;;;;3.47;1.77;;;11.60;91.70;;;;;;5126876;27;20493;-69
2022/04/26 15:58:24;;;;;;;4.93;1.70;;;11.60;92.00;;;;;;5127182;27;20916;-68
2022/04/26 16:00:51;;;;;;;2.80;1.40;;;11.50;91.80;;;;;;5125450;27;20281;-68
2022/04/26 16:03:17;;;;;;;3.37;1.87;;;11.50;91.60;;;;;;5127425;27;20240;-68
2022/04/26 16:05:44;;;;;;;2.10;1.10;;;11.50;91.20;;;;;;5127222;27;20428;-68
2022/04/26 16:08:10;;;;;;;3.07;1.57;;;11.50;91.40;;;;;;5124956;27;20535;-69
2022/04/26 16:21:32;;;;;;;3.00;1.40;;;12.00;88.80;;;;;;5121904;27;20423;-68
2022/04/26 16:24:00;;;;;;;1.90;1.00;;;12.10;90.60;;;;;;5127652;27;20417;-68
2022/04/26 16:26:27;;;;;;;1.83;1.00;;;12.30;88.30;;;;;;5126826;27;20211;-68
2022/04/26 16:28:53;;;;;;;2.70;1.43;;;12.20;87.60;;;;;;5126445;27;20409;-68
2022/04/26 16:31:20;;;;;;;2.27;1.13;;;12.00;86.30;;;;;;5116604;27;20475;-68
2022/04/26 16:33:46;;;;;;;4.80;1.70;;;11.80;87.50;;;;;;5126419;27;20432;-68
2022/04/26 16:36:12;;;;;;;2.03;0.97;;;11.50;87.80;;;;;;5111712;27;20442;-68
2022/04/26 16:38:38;;;;;;;1.63;1.00;;;11.20;90.10;;;;;;5121918;27;20265;-68
2022/04/26 16:41:05;;;;;;;2.60;1.27;;;11.10;90.90;;;;;;5114696;27;20241;-68
2022/04/26 16:43:33;;;;;;;3.67;1.87;;;11.00;91.00;;;;;;5125123;27;20413;-68
2022/04/26 16:46:00;;;;;;;3.40;1.10;;;10.90;90.90;;;;;;5126421;27;20444;-68
2022/04/26 16:48:25;;;;;;;2.40;1.17;;;10.80;91.00;;;;;;5126384;27;20420;-67
2022/04/26 16:50:51;;;;;;;3.60;1.30;;;10.80;91.10;;;;;;5125580;27;20420;-68
2022/04/26 16:53:16;;;;;;;2.90;1.60;;;10.90;90.90;;;;;;5126978;27;20272;-68
2022/04/26 16:55:42;;;;;;;3.00;1.53;;;10.90;91.60;;;;;;5121484;27;20965;-67
2022/04/26 16:58:08;;;;;;;2.93;1.37;;;10.90;91.80;;;;;;5126920;27;20318;-67
2022/04/26 17:00:34;;;;;;;6.30;1.93;;;11.00;91.40;;;;;;5123429;28;20210;-70
2022/04/26 17:03:00;;;;;;;2.30;0.97;;;11.20;91.70;;;;;;5122782;28;20289;-67
2022/04/26 17:05:27;;;;;;;6.03;1.80;;;11.10;91.70;;;;;;5106565;28;20466;-67
2022/04/26 17:07:54;;;;;;;4.60;1.83;;;11.10;91.80;;;;;;5119812;28;20742;-67
2022/04/26 17:10:20;;;;;;;2.40;1.30;;;11.00;91.80;;;;;;5113265;28;20838;-66
2022/04/26 17:12:50;;;;;;;2.90;1.70;;;11.00;92.10;;;;;;5121482;28;20479;-70